sensor_id;sensor_type;location;lat;lon;timestamp;temperature;humidity
20744;DHT22;56303;52.160;-0.428;2023-03-04T00:02:20;6.90;99.90
20744;DHT22;56303;52.160;-0.428;2023-03-04T00:04:47;7.00;99.90
20744;DHT22;56303;52.160;-0.428;2023-03-04T00:07:14;8.40;99.90
20744;DHT22;56303;52.160;-0.428;2023-03-04T00:09:43;6.70;99.90
20744;DHT22;56303;52.160;-0.428;2023-03-04T00:12:11;6.40;99.90
20744;DHT22;56303;52.160;-0.428;2023-03-04T00:14:39;6.50;99.90
20744;DHT22;56303;52.160;-0.428;2023-03-04T00:17:11;6.60;99.90
20744;DHT22;56303;52.160;-0.428;2023-03-04T00:19:40;6.60;99.90
20744;DHT22;56303;52.160;-0.428;2023-03-04T00:22:07;7.00;99.90
20744;DHT22;56303;52.160;-0.428;2023-03-04T00:24:34;7.00;99.90
20744;DHT22;56303;52.160;-0.428;2023-03-04T00:27:01;6.90;99.90
20744;DHT22;56303;52.160;-0.428;2023-03-04T00:29:28;7.00;99.90
20744;DHT22;56303;52.160;-0.428;2023-03-04T00:31:55;6.80;99.90
20744;DHT22;56303;52.160;-0.428;2023-03-04T00:34:22;6.60;99.90
20744;DHT22;56303;52.160;-0.428;2023-03-04T00:36:49;6.80;99.90
20744;DHT22;56303;52.160;-0.428;2023-03-04T00:39:16;6.60;99.90
20744;DHT22;56303;52.160;-0.428;2023-03-04T00:41:44;6.80;99.90
20744;DHT22;56303;52.160;-0.428;2023-03-04T00:44:10;7.00;99.90
20744;DHT22;56303;52.160;-0.428;2023-03-04T00:46:37;6.90;99.90
20744;DHT22;56303;52.160;-0.428;2023-03-04T00:49:04;6.70;99.90
20744;DHT22;56303;52.160;-0.428;2023-03-04T00:51:31;6.80;99.90
20744;DHT22;56303;52.160;-0.428;2023-03-04T00:53:57;6.90;99.90
20744;DHT22;56303;52.160;-0.428;2023-03-04T00:56:26;6.80;99.90
20744;DHT22;56303;52.160;-0.428;2023-03-04T00:58:53;6.70;99.90
20744;DHT22;56303;52.160;-0.428;2023-03-04T01:01:20;6.60;99.90
20744;DHT22;56303;52.160;-0.428;2023-03-04T01:03:47;6.70;99.90
20744;DHT22;56303;52.160;-0.428;2023-03-04T01:06:14;6.70;99.90
20744;DHT22;56303;52.160;-0.428;2023-03-04T01:08:41;6.80;99.90
20744;DHT22;56303;52.160;-0.428;2023-03-04T01:11:09;6.70;99.90
20744;DHT22;56303;52.160;-0.428;2023-03-04T01:13:38;6.80;99.90
20744;DHT22;56303;52.160;-0.428;2023-03-04T01:16:06;6.70;99.90
20744;DHT22;56303;52.160;-0.428;2023-03-04T01:18:33;6.50;99.90
20744;DHT22;56303;52.160;-0.428;2023-03-04T01:21:00;6.30;99.90
20744;DHT22;56303;52.160;-0.428;2023-03-04T01:23:28;6.50;99.90
20744;DHT22;56303;52.160;-0.428;2023-03-04T01:25:55;6.60;99.90
20744;DHT22;56303;52.160;-0.428;2023-03-04T01:28:22;6.70;99.90
20744;DHT22;56303;52.160;-0.428;2023-03-04T01:30:49;6.90;99.90
20744;DHT22;56303;52.160;-0.428;2023-03-04T01:33:16;7.00;99.90
20744;DHT22;56303;52.160;-0.428;2023-03-04T01:35:43;7.10;99.90
20744;DHT22;56303;52.160;-0.428;2023-03-04T01:38:10;7.20;99.90
20744;DHT22;56303;52.160;-0.428;2023-03-04T01:40:39;7.30;99.90
20744;DHT22;56303;52.160;-0.428;2023-03-04T01:43:06;7.20;99.90
20744;DHT22;56303;52.160;-0.428;2023-03-04T01:45:37;7.20;99.90
20744;DHT22;56303;52.160;-0.428;2023-03-04T01:48:08;6.90;99.90
20744;DHT22;56303;52.160;-0.428;2023-03-04T01:50:37;6.90;99.90
20744;DHT22;56303;52.160;-0.428;2023-03-04T01:53:04;7.10;99.90
20744;DHT22;56303;52.160;-0.428;2023-03-04T01:55:31;7.00;99.90
20744;DHT22;56303;52.160;-0.428;2023-03-04T01:57:59;7.10;99.90
20744;DHT22;56303;52.160;-0.428;2023-03-04T02:00:33;6.70;99.90
20744;DHT22;56303;52.160;-0.428;2023-03-04T02:03:04;7.00;99.90
20744;DHT22;56303;52.160;-0.428;2023-03-04T02:05:35;7.10;99.90
20744;DHT22;56303;52.160;-0.428;2023-03-04T02:08:03;6.90;99.90
20744;DHT22;56303;52.160;-0.428;2023-03-04T02:10:31;7.00;99.90
20744;DHT22;56303;52.160;-0.428;2023-03-04T02:12:59;7.20;99.90
20744;DHT22;56303;52.160;-0.428;2023-03-04T02:15:27;7.10;99.90
20744;DHT22;56303;52.160;-0.428;2023-03-04T02:17:54;7.00;99.90
20744;DHT22;56303;52.160;-0.428;2023-03-04T02:20:38;7.00;99.90
20744;DHT22;56303;52.160;-0.428;2023-03-04T02:23:32;6.90;99.90
20744;DHT22;56303;52.160;-0.428;2023-03-04T02:26:13;7.00;99.90
20744;DHT22;56303;52.160;-0.428;2023-03-04T02:28:40;7.30;99.90
20744;DHT22;56303;52.160;-0.428;2023-03-04T02:31:34;7.40;99.90
20744;DHT22;56303;52.160;-0.428;2023-03-04T02:34:13;7.30;99.90
20744;DHT22;56303;52.160;-0.428;2023-03-04T02:36:42;7.10;99.90
20744;DHT22;56303;52.160;-0.428;2023-03-04T02:39:19;7.50;99.90
20744;DHT22;56303;52.160;-0.428;2023-03-04T02:41:48;7.20;99.90
20744;DHT22;56303;52.160;-0.428;2023-03-04T02:44:30;7.50;99.90
20744;DHT22;56303;52.160;-0.428;2023-03-04T02:46:58;7.10;99.90
20744;DHT22;56303;52.160;-0.428;2023-03-04T02:49:27;7.20;99.90
20744;DHT22;56303;52.160;-0.428;2023-03-04T02:52:24;7.00;99.90
20744;DHT22;56303;52.160;-0.428;2023-03-04T02:54:49;6.90;99.90
20744;DHT22;56303;52.160;-0.428;2023-03-04T02:57:16;6.80;99.90
20744;DHT22;56303;52.160;-0.428;2023-03-04T02:59:43;6.90;99.90
20744;DHT22;56303;52.160;-0.428;2023-03-04T03:02:11;6.60;99.90
20744;DHT22;56303;52.160;-0.428;2023-03-04T03:04:38;6.60;99.90
20744;DHT22;56303;52.160;-0.428;2023-03-04T03:07:06;6.50;99.90
20744;DHT22;56303;52.160;-0.428;2023-03-04T03:09:34;6.70;99.90
20744;DHT22;56303;52.160;-0.428;2023-03-04T03:12:00;6.80;99.90
20744;DHT22;56303;52.160;-0.428;2023-03-04T03:14:28;6.90;99.90
20744;DHT22;56303;52.160;-0.428;2023-03-04T03:16:55;6.70;99.90
20744;DHT22;56303;52.160;-0.428;2023-03-04T03:19:22;6.80;99.90
20744;DHT22;56303;52.160;-0.428;2023-03-04T03:21:49;6.60;99.90
20744;DHT22;56303;52.160;-0.428;2023-03-04T03:24:16;6.90;99.90
20744;DHT22;56303;52.160;-0.428;2023-03-04T03:26:43;6.70;99.90
20744;DHT22;56303;52.160;-0.428;2023-03-04T03:29:11;6.60;99.90
20744;DHT22;56303;52.160;-0.428;2023-03-04T03:31:37;6.50;99.90
20744;DHT22;56303;52.160;-0.428;2023-03-04T03:34:04;6.40;99.90
20744;DHT22;56303;52.160;-0.428;2023-03-04T03:36:31;6.50;99.90
20744;DHT22;56303;52.160;-0.428;2023-03-04T03:39:00;6.70;99.90
20744;DHT22;56303;52.160;-0.428;2023-03-04T03:41:28;6.40;99.90
20744;DHT22;56303;52.160;-0.428;2023-03-04T03:43:54;6.60;99.90
20744;DHT22;56303;52.160;-0.428;2023-03-04T03:46:21;6.60;99.90
20744;DHT22;56303;52.160;-0.428;2023-03-04T03:48:48;6.40;99.90
20744;DHT22;56303;52.160;-0.428;2023-03-04T03:51:15;6.20;99.90
20744;DHT22;56303;52.160;-0.428;2023-03-04T03:53:42;6.20;99.90
20744;DHT22;56303;52.160;-0.428;2023-03-04T03:56:08;6.10;99.90
20744;DHT22;56303;52.160;-0.428;2023-03-04T03:58:35;6.50;99.90
20744;DHT22;56303;52.160;-0.428;2023-03-04T04:01:02;6.30;99.90
20744;DHT22;56303;52.160;-0.428;2023-03-04T04:03:29;6.40;99.90
20744;DHT22;56303;52.160;-0.428;2023-03-04T04:05:56;6.10;99.90
20744;DHT22;56303;52.160;-0.428;2023-03-04T04:08:23;6.00;99.90
20744;DHT22;56303;52.160;-0.428;2023-03-04T04:10:50;5.90;99.90
20744;DHT22;56303;52.160;-0.428;2023-03-04T04:13:17;6.00;99.90
20744;DHT22;56303;52.160;-0.428;2023-03-04T04:15:43;5.70;99.90
20744;DHT22;56303;52.160;-0.428;2023-03-04T04:18:10;5.80;99.90
20744;DHT22;56303;52.160;-0.428;2023-03-04T04:20:38;5.90;99.90
20744;DHT22;56303;52.160;-0.428;2023-03-04T04:23:05;6.10;99.90
20744;DHT22;56303;52.160;-0.428;2023-03-04T04:25:33;6.10;99.90
20744;DHT22;56303;52.160;-0.428;2023-03-04T04:27:59;6.30;99.90
20744;DHT22;56303;52.160;-0.428;2023-03-04T04:30:26;6.30;99.90
20744;DHT22;56303;52.160;-0.428;2023-03-04T04:32:53;6.40;99.90
20744;DHT22;56303;52.160;-0.428;2023-03-04T04:35:20;6.60;99.90
20744;DHT22;56303;52.160;-0.428;2023-03-04T04:37:47;6.60;99.90
20744;DHT22;56303;52.160;-0.428;2023-03-04T04:40:14;6.60;99.90
20744;DHT22;56303;52.160;-0.428;2023-03-04T04:42:41;6.60;99.90
20744;DHT22;56303;52.160;-0.428;2023-03-04T04:45:08;6.50;99.90
20744;DHT22;56303;52.160;-0.428;2023-03-04T04:47:35;6.30;99.90
20744;DHT22;56303;52.160;-0.428;2023-03-04T04:50:02;6.40;99.90
20744;DHT22;56303;52.160;-0.428;2023-03-04T04:52:29;6.50;99.90
20744;DHT22;56303;52.160;-0.428;2023-03-04T04:54:55;6.60;99.90
20744;DHT22;56303;52.160;-0.428;2023-03-04T04:57:22;6.50;99.90
20744;DHT22;56303;52.160;-0.428;2023-03-04T04:59:49;6.60;99.90
20744;DHT22;56303;52.160;-0.428;2023-03-04T05:02:16;6.60;99.90
20744;DHT22;56303;52.160;-0.428;2023-03-04T05:04:43;6.40;99.90
20744;DHT22;56303;52.160;-0.428;2023-03-04T05:07:10;6.40;99.90
20744;DHT22;56303;52.160;-0.428;2023-03-04T05:09:37;6.50;99.90
20744;DHT22;56303;52.160;-0.428;2023-03-04T05:12:03;6.60;99.90
20744;DHT22;56303;52.160;-0.428;2023-03-04T05:14:30;6.70;99.90
20744;DHT22;56303;52.160;-0.428;2023-03-04T05:16:57;6.80;99.90
20744;DHT22;56303;52.160;-0.428;2023-03-04T05:19:24;6.80;99.90
20744;DHT22;56303;52.160;-0.428;2023-03-04T05:21:51;7.10;99.90
20744;DHT22;56303;52.160;-0.428;2023-03-04T05:24:18;6.80;99.90
20744;DHT22;56303;52.160;-0.428;2023-03-04T05:26:46;7.00;99.90
20744;DHT22;56303;52.160;-0.428;2023-03-04T05:29:12;7.30;99.90
20744;DHT22;56303;52.160;-0.428;2023-03-04T05:31:39;7.30;99.90
20744;DHT22;56303;52.160;-0.428;2023-03-04T05:34:06;7.10;99.90
20744;DHT22;56303;52.160;-0.428;2023-03-04T05:36:33;7.40;99.90
20744;DHT22;56303;52.160;-0.428;2023-03-04T05:39:00;7.60;99.90
20744;DHT22;56303;52.160;-0.428;2023-03-04T05:41:26;7.60;99.90
20744;DHT22;56303;52.160;-0.428;2023-03-04T05:43:53;7.20;99.90
20744;DHT22;56303;52.160;-0.428;2023-03-04T05:46:20;7.30;99.90
20744;DHT22;56303;52.160;-0.428;2023-03-04T05:48:52;7.20;99.90
20744;DHT22;56303;52.160;-0.428;2023-03-04T05:51:20;7.10;99.90
20744;DHT22;56303;52.160;-0.428;2023-03-04T05:53:47;7.20;99.90
20744;DHT22;56303;52.160;-0.428;2023-03-04T05:56:17;7.50;99.90
20744;DHT22;56303;52.160;-0.428;2023-03-04T05:58:44;7.30;99.90
20744;DHT22;56303;52.160;-0.428;2023-03-04T06:01:13;7.00;99.90
20744;DHT22;56303;52.160;-0.428;2023-03-04T06:03:40;7.10;99.90
20744;DHT22;56303;52.160;-0.428;2023-03-04T06:06:09;7.00;99.90
20744;DHT22;56303;52.160;-0.428;2023-03-04T06:08:36;7.10;99.90
20744;DHT22;56303;52.160;-0.428;2023-03-04T06:11:03;7.10;99.90
20744;DHT22;56303;52.160;-0.428;2023-03-04T06:13:32;7.10;99.90
20744;DHT22;56303;52.160;-0.428;2023-03-04T06:15:59;7.50;99.90
20744;DHT22;56303;52.160;-0.428;2023-03-04T06:18:30;7.40;99.90
20744;DHT22;56303;52.160;-0.428;2023-03-04T06:21:01;7.50;99.90
20744;DHT22;56303;52.160;-0.428;2023-03-04T06:23:29;7.70;99.90
20744;DHT22;56303;52.160;-0.428;2023-03-04T06:25:58;7.60;99.90
20744;DHT22;56303;52.160;-0.428;2023-03-04T06:28:26;7.70;99.90
20744;DHT22;56303;52.160;-0.428;2023-03-04T06:30:54;7.70;99.90
20744;DHT22;56303;52.160;-0.428;2023-03-04T06:33:22;7.50;99.90
20744;DHT22;56303;52.160;-0.428;2023-03-04T06:35:54;7.40;99.90
20744;DHT22;56303;52.160;-0.428;2023-03-04T06:38:21;7.20;99.90
20744;DHT22;56303;52.160;-0.428;2023-03-04T06:40:49;7.30;99.90
20744;DHT22;56303;52.160;-0.428;2023-03-04T06:43:23;7.40;99.90
20744;DHT22;56303;52.160;-0.428;2023-03-04T06:45:50;7.30;99.90
20744;DHT22;56303;52.160;-0.428;2023-03-04T06:48:17;7.50;99.90
20744;DHT22;56303;52.160;-0.428;2023-03-04T06:50:44;7.50;99.90
20744;DHT22;56303;52.160;-0.428;2023-03-04T06:53:11;7.70;99.90
20744;DHT22;56303;52.160;-0.428;2023-03-04T06:55:38;7.70;99.90
20744;DHT22;56303;52.160;-0.428;2023-03-04T06:58:05;7.80;99.90
20744;DHT22;56303;52.160;-0.428;2023-03-04T07:00:31;8.00;99.90
20744;DHT22;56303;52.160;-0.428;2023-03-04T07:03:01;7.80;99.90
20744;DHT22;56303;52.160;-0.428;2023-03-04T07:05:29;7.90;99.90
20744;DHT22;56303;52.160;-0.428;2023-03-04T07:07:56;7.90;99.90
20744;DHT22;56303;52.160;-0.428;2023-03-04T07:10:23;8.10;99.90
20744;DHT22;56303;52.160;-0.428;2023-03-04T07:12:50;7.90;99.90
20744;DHT22;56303;52.160;-0.428;2023-03-04T07:15:19;7.60;99.90
20744;DHT22;56303;52.160;-0.428;2023-03-04T07:17:49;7.30;99.90
20744;DHT22;56303;52.160;-0.428;2023-03-04T07:20:16;7.30;99.90
20744;DHT22;56303;52.160;-0.428;2023-03-04T07:22:43;7.00;99.90
20744;DHT22;56303;52.160;-0.428;2023-03-04T07:25:10;7.00;99.90
20744;DHT22;56303;52.160;-0.428;2023-03-04T07:27:37;7.10;99.90
20744;DHT22;56303;52.160;-0.428;2023-03-04T07:30:05;7.10;99.90
20744;DHT22;56303;52.160;-0.428;2023-03-04T07:32:32;7.10;99.90
20744;DHT22;56303;52.160;-0.428;2023-03-04T07:35:03;7.00;99.90
20744;DHT22;56303;52.160;-0.428;2023-03-04T07:37:31;7.00;99.90
20744;DHT22;56303;52.160;-0.428;2023-03-04T07:39:58;7.00;99.90
20744;DHT22;56303;52.160;-0.428;2023-03-04T07:42:24;7.10;99.90
20744;DHT22;56303;52.160;-0.428;2023-03-04T07:44:51;7.50;99.90
20744;DHT22;56303;52.160;-0.428;2023-03-04T07:47:19;7.60;99.90
20744;DHT22;56303;52.160;-0.428;2023-03-04T07:49:46;7.90;99.90
20744;DHT22;56303;52.160;-0.428;2023-03-04T07:52:12;7.90;99.90
20744;DHT22;56303;52.160;-0.428;2023-03-04T07:54:40;7.90;99.90
20744;DHT22;56303;52.160;-0.428;2023-03-04T07:57:08;7.90;99.90
20744;DHT22;56303;52.160;-0.428;2023-03-04T07:59:35;8.00;99.90
20744;DHT22;56303;52.160;-0.428;2023-03-04T08:02:02;7.60;99.90
20744;DHT22;56303;52.160;-0.428;2023-03-04T08:04:30;7.70;99.90
20744;DHT22;56303;52.160;-0.428;2023-03-04T08:06:57;8.00;99.90
20744;DHT22;56303;52.160;-0.428;2023-03-04T08:09:24;7.80;99.90
20744;DHT22;56303;52.160;-0.428;2023-03-04T08:11:51;7.60;99.90
20744;DHT22;56303;52.160;-0.428;2023-03-04T08:14:18;7.60;99.90
20744;DHT22;56303;52.160;-0.428;2023-03-04T08:16:45;7.50;99.90
20744;DHT22;56303;52.160;-0.428;2023-03-04T08:19:12;7.60;99.90
20744;DHT22;56303;52.160;-0.428;2023-03-04T08:21:38;7.60;99.90
20744;DHT22;56303;52.160;-0.428;2023-03-04T08:24:05;7.60;99.90
20744;DHT22;56303;52.160;-0.428;2023-03-04T08:26:40;7.60;99.90
20744;DHT22;56303;52.160;-0.428;2023-03-04T08:29:11;7.60;99.90
20744;DHT22;56303;52.160;-0.428;2023-03-04T08:31:38;7.40;99.90
20744;DHT22;56303;52.160;-0.428;2023-03-04T08:34:06;7.40;99.90
20744;DHT22;56303;52.160;-0.428;2023-03-04T08:36:34;7.30;99.90
20744;DHT22;56303;52.160;-0.428;2023-03-04T08:39:01;7.50;99.90
20744;DHT22;56303;52.160;-0.428;2023-03-04T08:41:28;7.50;99.90
20744;DHT22;56303;52.160;-0.428;2023-03-04T08:43:55;7.40;99.90
20744;DHT22;56303;52.160;-0.428;2023-03-04T08:46:22;7.60;99.90
20744;DHT22;56303;52.160;-0.428;2023-03-04T08:48:49;6.80;99.90
20744;DHT22;56303;52.160;-0.428;2023-03-04T08:51:15;7.50;99.90
20744;DHT22;56303;52.160;-0.428;2023-03-04T08:53:43;7.90;99.90
20744;DHT22;56303;52.160;-0.428;2023-03-04T08:56:10;7.90;99.90
20744;DHT22;56303;52.160;-0.428;2023-03-04T08:58:37;7.80;99.90
20744;DHT22;56303;52.160;-0.428;2023-03-04T09:01:07;8.00;99.90
20744;DHT22;56303;52.160;-0.428;2023-03-04T09:03:34;8.00;99.90
20744;DHT22;56303;52.160;-0.428;2023-03-04T09:06:02;8.10;99.90
20744;DHT22;56303;52.160;-0.428;2023-03-04T09:08:29;8.10;99.90
20744;DHT22;56303;52.160;-0.428;2023-03-04T09:10:56;7.80;99.90
20744;DHT22;56303;52.160;-0.428;2023-03-04T09:13:24;8.00;99.90
20744;DHT22;56303;52.160;-0.428;2023-03-04T09:15:52;7.50;99.90
20744;DHT22;56303;52.160;-0.428;2023-03-04T09:18:21;8.00;99.90
20744;DHT22;56303;52.160;-0.428;2023-03-04T09:20:48;8.20;99.90
20744;DHT22;56303;52.160;-0.428;2023-03-04T09:23:16;8.00;99.90
20744;DHT22;56303;52.160;-0.428;2023-03-04T09:25:44;8.10;99.90
20744;DHT22;56303;52.160;-0.428;2023-03-04T09:28:12;8.10;99.90
20744;DHT22;56303;52.160;-0.428;2023-03-04T09:30:39;8.20;99.90
20744;DHT22;56303;52.160;-0.428;2023-03-04T09:33:06;8.10;99.90
20744;DHT22;56303;52.160;-0.428;2023-03-04T09:35:33;8.10;99.90
20744;DHT22;56303;52.160;-0.428;2023-03-04T09:38:01;7.60;99.90
20744;DHT22;56303;52.160;-0.428;2023-03-04T09:40:36;7.40;99.90
20744;DHT22;56303;52.160;-0.428;2023-03-04T09:43:06;7.70;99.90
20744;DHT22;56303;52.160;-0.428;2023-03-04T09:45:42;7.90;99.90
20744;DHT22;56303;52.160;-0.428;2023-03-04T09:48:16;8.10;99.90
20744;DHT22;56303;52.160;-0.428;2023-03-04T09:51:00;8.10;99.90
20744;DHT22;56303;52.160;-0.428;2023-03-04T09:53:53;8.30;99.90
20744;DHT22;56303;52.160;-0.428;2023-03-04T09:56:22;8.40;99.90
20744;DHT22;56303;52.160;-0.428;2023-03-04T10:01:53;8.50;99.90
20744;DHT22;56303;52.160;-0.428;2023-03-04T10:04:32;8.20;99.90
20744;DHT22;56303;52.160;-0.428;2023-03-04T10:07:01;7.90;99.90
20744;DHT22;56303;52.160;-0.428;2023-03-04T10:09:39;8.20;99.90
20744;DHT22;56303;52.160;-0.428;2023-03-04T10:12:18;7.90;99.90
20744;DHT22;56303;52.160;-0.428;2023-03-04T10:14:50;7.60;99.90
20744;DHT22;56303;52.160;-0.428;2023-03-04T10:22:43;7.80;99.90
20744;DHT22;56303;52.160;-0.428;2023-03-04T10:25:18;8.00;99.90
20744;DHT22;56303;52.160;-0.428;2023-03-04T10:33:13;8.20;99.90
20744;DHT22;56303;52.160;-0.428;2023-03-04T10:35:46;8.10;99.90
20744;DHT22;56303;52.160;-0.428;2023-03-04T10:38:14;8.30;99.90
20744;DHT22;56303;52.160;-0.428;2023-03-04T10:40:42;8.70;99.90
20744;DHT22;56303;52.160;-0.428;2023-03-04T10:43:18;8.80;99.90
20744;DHT22;56303;52.160;-0.428;2023-03-04T10:45:47;9.00;99.90
20744;DHT22;56303;52.160;-0.428;2023-03-04T10:48:23;9.20;99.90
20744;DHT22;56303;52.160;-0.428;2023-03-04T10:50:50;9.00;99.90
20744;DHT22;56303;52.160;-0.428;2023-03-04T10:53:36;9.20;99.90
20744;DHT22;56303;52.160;-0.428;2023-03-04T10:56:31;9.40;99.90
20744;DHT22;56303;52.160;-0.428;2023-03-04T11:01:54;9.10;99.90
20744;DHT22;56303;52.160;-0.428;2023-03-04T11:04:26;9.30;99.90
20744;DHT22;56303;52.160;-0.428;2023-03-04T11:06:53;9.50;99.90
20744;DHT22;56303;52.160;-0.428;2023-03-04T11:09:24;9.20;99.90
20744;DHT22;56303;52.160;-0.428;2023-03-04T11:11:52;9.30;99.90
20744;DHT22;56303;52.160;-0.428;2023-03-04T11:14:41;9.30;99.90
20744;DHT22;56303;52.160;-0.428;2023-03-04T11:17:18;9.70;99.90
20744;DHT22;56303;52.160;-0.428;2023-03-04T11:19:56;9.50;99.90
20744;DHT22;56303;52.160;-0.428;2023-03-04T11:22:24;9.40;99.90
20744;DHT22;56303;52.160;-0.428;2023-03-04T11:24:56;9.60;99.90
20744;DHT22;56303;52.160;-0.428;2023-03-04T11:27:46;8.80;99.90
20744;DHT22;56303;52.160;-0.428;2023-03-04T11:30:33;8.70;99.90
20744;DHT22;56303;52.160;-0.428;2023-03-04T11:35:55;8.50;99.90
20744;DHT22;56303;52.160;-0.428;2023-03-04T11:38:42;8.90;99.90
20744;DHT22;56303;52.160;-0.428;2023-03-04T11:41:35;9.10;99.90
20744;DHT22;56303;52.160;-0.428;2023-03-04T11:44:05;8.60;99.90
20744;DHT22;56303;52.160;-0.428;2023-03-04T11:58:18;8.40;99.90
20744;DHT22;56303;52.160;-0.428;2023-03-04T12:01:08;8.30;99.90
20744;DHT22;56303;52.160;-0.428;2023-03-04T12:03:59;8.80;99.90
20744;DHT22;56303;52.160;-0.428;2023-03-04T12:09:47;8.80;99.90
20744;DHT22;56303;52.160;-0.428;2023-03-04T12:20:49;9.20;99.90
20744;DHT22;56303;52.160;-0.428;2023-03-04T12:25:50;9.50;99.90
20744;DHT22;56303;52.160;-0.428;2023-03-04T12:37:00;9.20;99.90
20744;DHT22;56303;52.160;-0.428;2023-03-04T12:42:39;9.40;99.90
20744;DHT22;56303;52.160;-0.428;2023-03-04T12:48:35;9.00;99.90
20744;DHT22;56303;52.160;-0.428;2023-03-04T12:57:05;8.90;99.90
20744;DHT22;56303;52.160;-0.428;2023-03-04T12:59:39;9.20;99.90
20744;DHT22;56303;52.160;-0.428;2023-03-04T13:07:59;9.40;99.90
20744;DHT22;56303;52.160;-0.428;2023-03-04T13:10:27;9.40;99.90
20744;DHT22;56303;52.160;-0.428;2023-03-04T13:12:56;8.70;99.90
20744;DHT22;56303;52.160;-0.428;2023-03-04T13:17:51;9.70;99.90
20744;DHT22;56303;52.160;-0.428;2023-03-04T13:25:47;9.80;99.90
20744;DHT22;56303;52.160;-0.428;2023-03-04T13:28:19;10.50;99.90
20744;DHT22;56303;52.160;-0.428;2023-03-04T13:36:07;9.40;99.90
20744;DHT22;56303;52.160;-0.428;2023-03-04T13:41:56;9.60;99.90
20744;DHT22;56303;52.160;-0.428;2023-03-04T13:44:56;9.50;99.90
20744;DHT22;56303;52.160;-0.428;2023-03-04T13:47:40;9.70;99.90
20744;DHT22;56303;52.160;-0.428;2023-03-04T13:50:36;9.40;99.90
20744;DHT22;56303;52.160;-0.428;2023-03-04T13:53:39;9.40;99.90
20744;DHT22;56303;52.160;-0.428;2023-03-04T13:56:09;9.40;99.90
20744;DHT22;56303;52.160;-0.428;2023-03-04T13:58:38;10.70;99.90
20744;DHT22;56303;52.160;-0.428;2023-03-04T14:01:24;9.50;99.90
20744;DHT22;56303;52.160;-0.428;2023-03-04T14:03:52;9.80;99.90
20744;DHT22;56303;52.160;-0.428;2023-03-04T14:06:25;10.00;99.90
20744;DHT22;56303;52.160;-0.428;2023-03-04T14:08:53;10.40;99.90
20744;DHT22;56303;52.160;-0.428;2023-03-04T14:11:32;10.20;99.90
20744;DHT22;56303;52.160;-0.428;2023-03-04T14:14:04;9.70;99.90
20744;DHT22;56303;52.160;-0.428;2023-03-04T14:16:39;10.00;99.90
20744;DHT22;56303;52.160;-0.428;2023-03-04T14:19:31;9.40;99.90
20744;DHT22;56303;52.160;-0.428;2023-03-04T14:21:59;8.90;99.90
20744;DHT22;56303;52.160;-0.428;2023-03-04T14:24:26;9.00;99.90
20744;DHT22;56303;52.160;-0.428;2023-03-04T14:27:11;8.90;99.90
20744;DHT22;56303;52.160;-0.428;2023-03-04T14:29:39;8.70;99.90
20744;DHT22;56303;52.160;-0.428;2023-03-04T14:32:06;9.10;99.90
20744;DHT22;56303;52.160;-0.428;2023-03-04T14:34:36;9.40;99.90
20744;DHT22;56303;52.160;-0.428;2023-03-04T14:37:19;9.70;99.90
20744;DHT22;56303;52.160;-0.428;2023-03-04T14:39:55;9.60;99.90
20744;DHT22;56303;52.160;-0.428;2023-03-04T14:42:25;9.30;99.90
20744;DHT22;56303;52.160;-0.428;2023-03-04T14:44:57;9.60;99.90
20744;DHT22;56303;52.160;-0.428;2023-03-04T14:47:35;9.70;99.90
20744;DHT22;56303;52.160;-0.428;2023-03-04T14:50:06;9.80;99.90
20744;DHT22;56303;52.160;-0.428;2023-03-04T14:53:04;9.60;99.90
20744;DHT22;56303;52.160;-0.428;2023-03-04T14:55:26;9.60;99.90
20744;DHT22;56303;52.160;-0.428;2023-03-04T14:58:06;9.60;99.90
20744;DHT22;56303;52.160;-0.428;2023-03-04T15:00:38;10.80;99.90
20744;DHT22;56303;52.160;-0.428;2023-03-04T15:03:18;9.40;99.90
20744;DHT22;56303;52.160;-0.428;2023-03-04T15:05:48;9.60;99.90
20744;DHT22;56303;52.160;-0.428;2023-03-04T15:08:22;9.30;99.90
20744;DHT22;56303;52.160;-0.428;2023-03-04T15:10:58;9.10;99.90
20744;DHT22;56303;52.160;-0.428;2023-03-04T15:13:47;9.10;99.90
20744;DHT22;56303;52.160;-0.428;2023-03-04T15:16:17;9.50;99.90
20744;DHT22;56303;52.160;-0.428;2023-03-04T15:18:57;9.30;99.90
20744;DHT22;56303;52.160;-0.428;2023-03-04T15:21:36;8.90;99.90
20744;DHT22;56303;52.160;-0.428;2023-03-04T15:24:07;8.70;99.90
20744;DHT22;56303;52.160;-0.428;2023-03-04T15:26:38;8.60;99.90
20744;DHT22;56303;52.160;-0.428;2023-03-04T15:29:18;9.10;99.90
20744;DHT22;56303;52.160;-0.428;2023-03-04T15:31:46;9.20;99.90
20744;DHT22;56303;52.160;-0.428;2023-03-04T15:34:17;9.20;99.90
20744;DHT22;56303;52.160;-0.428;2023-03-04T15:36:49;9.40;99.90
20744;DHT22;56303;52.160;-0.428;2023-03-04T15:39:17;9.40;99.90
20744;DHT22;56303;52.160;-0.428;2023-03-04T15:41:44;9.00;99.90
20744;DHT22;56303;52.160;-0.428;2023-03-04T15:44:12;9.00;99.90
20744;DHT22;56303;52.160;-0.428;2023-03-04T15:46:39;8.80;99.90
20744;DHT22;56303;52.160;-0.428;2023-03-04T15:49:06;8.80;99.90
20744;DHT22;56303;52.160;-0.428;2023-03-04T15:51:33;8.90;99.90
20744;DHT22;56303;52.160;-0.428;2023-03-04T15:54:01;9.10;99.90
20744;DHT22;56303;52.160;-0.428;2023-03-04T15:56:30;8.90;99.90
20744;DHT22;56303;52.160;-0.428;2023-03-04T15:59:08;9.20;99.90
20744;DHT22;56303;52.160;-0.428;2023-03-04T16:01:36;9.10;99.90
20744;DHT22;56303;52.160;-0.428;2023-03-04T16:04:03;9.10;99.90
20744;DHT22;56303;52.160;-0.428;2023-03-04T16:06:31;8.80;99.90
20744;DHT22;56303;52.160;-0.428;2023-03-04T16:08:59;9.10;99.90
20744;DHT22;56303;52.160;-0.428;2023-03-04T16:11:28;9.00;99.90
20744;DHT22;56303;52.160;-0.428;2023-03-04T16:13:55;8.90;99.90
20744;DHT22;56303;52.160;-0.428;2023-03-04T16:16:24;8.90;99.90
20744;DHT22;56303;52.160;-0.428;2023-03-04T16:18:50;8.70;99.90
20744;DHT22;56303;52.160;-0.428;2023-03-04T16:21:19;8.60;99.90
20744;DHT22;56303;52.160;-0.428;2023-03-04T16:23:50;8.80;99.90
20744;DHT22;56303;52.160;-0.428;2023-03-04T16:26:23;8.90;99.90
20744;DHT22;56303;52.160;-0.428;2023-03-04T16:28:53;9.00;99.90
20744;DHT22;56303;52.160;-0.428;2023-03-04T16:31:21;8.80;99.90
20744;DHT22;56303;52.160;-0.428;2023-03-04T16:33:48;8.90;99.90
20744;DHT22;56303;52.160;-0.428;2023-03-04T16:36:22;8.50;99.90
20744;DHT22;56303;52.160;-0.428;2023-03-04T16:38:51;8.70;99.90
20744;DHT22;56303;52.160;-0.428;2023-03-04T16:41:21;9.00;99.90
20744;DHT22;56303;52.160;-0.428;2023-03-04T16:43:50;9.10;99.90
20744;DHT22;56303;52.160;-0.428;2023-03-04T16:46:16;8.70;99.90
20744;DHT22;56303;52.160;-0.428;2023-03-04T16:48:43;8.70;99.90
20744;DHT22;56303;52.160;-0.428;2023-03-04T16:51:17;8.90;99.90
20744;DHT22;56303;52.160;-0.428;2023-03-04T16:53:53;8.90;99.90
20744;DHT22;56303;52.160;-0.428;2023-03-04T16:56:21;9.20;99.90
20744;DHT22;56303;52.160;-0.428;2023-03-04T16:58:48;8.50;99.90
20744;DHT22;56303;52.160;-0.428;2023-03-04T17:01:21;8.00;99.90
20744;DHT22;56303;52.160;-0.428;2023-03-04T17:03:48;8.20;99.90
20744;DHT22;56303;52.160;-0.428;2023-03-04T17:06:16;8.30;99.90
20744;DHT22;56303;52.160;-0.428;2023-03-04T17:08:43;8.30;99.90
20744;DHT22;56303;52.160;-0.428;2023-03-04T17:11:13;8.00;99.90
20744;DHT22;56303;52.160;-0.428;2023-03-04T17:13:41;8.00;99.90
20744;DHT22;56303;52.160;-0.428;2023-03-04T17:16:10;8.30;99.90
20744;DHT22;56303;52.160;-0.428;2023-03-04T17:18:37;8.60;99.90